Terminal Aerodrome Forecast
Issued by NWS

Home | Current Version | Previous Version | Text Only | Print | Product List | Glossary On
Versions: 1 2 3 4 5 6 7 8 9 10 11 12 13 14 15 16
000
FTAK31 PAJN 282300
TAFASI
TAF
PASI 282325Z 2900/2924 31012KT P6SM FEW010 SCT035
      TEMPO 2904/2908 SCT010 BKN025
     FM290800 33008KT P6SM BKN010
     FM291200 33004KT P6SM OVC006
     FM291700 32006KT P6SM FEW006 SCT010 BKN025
     FM292200 32010KT P6SM FEW010 SCT025=

USA.gov is the U.S. government's official web portal to all federal, state and local government web resources and services.